Time;durP1;ratioP1;P1;durP2;ratioP2;P2;SDS_P1;SDS_P2;PMS_P1;PMS_P2;Temp;Humidity;BMP_temperature;BMP_pressure;BME280_temperature;BME280_humidity;BME280_pressure;Samples;Min_cycle;Max_cycle;Signal;HPM_P1;HPM_P2
2023/02/17 00:00:53;;;;;;;14.10;8.82;;;9.70;99.90;;;;;;4989605;28;20444;-84
2023/02/17 00:03:18;;;;;;;24.08;12.93;;;9.70;99.90;;;;;;5008956;28;20034;-85
2023/02/17 00:05:45;;;;;;;24.70;9.90;;;9.70;99.90;;;;;;4991879;28;20041;-85
2023/02/17 00:08:11;;;;;;;18.05;9.93;;;9.90;99.90;;;;;;4983414;28;20120;-85
2023/02/17 00:10:36;;;;;;;9.75;6.35;;;9.70;99.90;;;;;;4977466;28;20129;-86
2023/02/17 00:13:02;;;;;;;17.65;10.73;;;9.70;99.90;;;;;;4982340;28;20038;-85
2023/02/17 00:15:28;;;;;;;14.98;10.88;;;9.80;99.90;;;;;;4998587;28;20045;-86
2023/02/17 00:17:53;;;;;;;14.35;10.13;;;9.70;99.90;;;;;;4982447;28;20034;-83
2023/02/17 00:20:19;;;;;;;14.32;8.77;;;9.70;99.90;;;;;;4964491;28;20119;-85
2023/02/17 00:22:45;;;;;;;22.88;14.32;;;9.80;99.90;;;;;;4980073;28;20042;-85
2023/02/17 00:25:10;;;;;;;16.92;9.23;;;9.70;99.90;;;;;;4979019;28;20033;-85
2023/02/17 00:27:36;;;;;;;19.30;11.65;;;9.70;99.90;;;;;;4997987;28;20049;-85
2023/02/17 00:30:01;;;;;;;14.15;8.90;;;9.70;99.90;;;;;;4991755;28;20113;-85
2023/02/17 00:32:29;;;;;;;20.33;10.13;;;9.80;99.90;;;;;;4997650;28;20054;-86
2023/02/17 00:34:57;;;;;;;21.27;11.30;;;9.80;99.90;;;;;;4994529;28;20430;-84
2023/02/17 00:37:23;;;;;;;15.00;8.77;;;9.70;99.90;;;;;;5000128;28;20149;-86
2023/02/17 00:39:48;;;;;;;14.05;9.25;;;9.80;99.90;;;;;;4979175;28;20098;-86
2023/02/17 00:42:14;;;;;;;12.50;6.88;;;9.90;99.90;;;;;;4986730;28;20120;-85
2023/02/17 00:44:39;;;;;;;18.48;10.63;;;9.70;99.90;;;;;;4970718;28;20041;-85
2023/02/17 00:47:05;;;;;;;10.73;6.40;;;9.80;99.90;;;;;;4982206;28;20037;-84
2023/02/17 00:49:30;;;;;;;16.15;8.18;;;9.80;99.90;;;;;;4996135;28;20118;-84
2023/02/17 00:52:01;;;;;;;15.65;9.10;;;9.80;99.90;;;;;;5005345;28;20042;-85
2023/02/17 00:54:27;;;;;;;13.93;7.28;;;9.70;99.90;;;;;;4981663;28;20045;-85
2023/02/17 00:56:53;;;;;;;20.17;9.43;;;9.90;99.90;;;;;;4999032;28;20031;-84
2023/02/17 00:59:19;;;;;;;14.60;7.55;;;9.90;99.90;;;;;;4977707;28;20037;-86
2023/02/17 01:01:45;;;;;;;10.77;5.47;;;9.90;99.90;;;;;;4981188;28;20137;-85
2023/02/17 01:04:12;;;;;;;21.60;11.13;;;9.90;99.90;;;;;;4976209;28;20489;-85
2023/02/17 01:06:38;;;;;;;17.25;7.68;;;9.80;99.90;;;;;;4949375;28;20554;-85
2023/02/17 01:09:04;;;;;;;19.70;7.97;;;9.90;99.90;;;;;;4947288;28;20037;-86
2023/02/17 01:11:31;;;;;;;11.75;6.20;;;9.80;99.90;;;;;;4965871;28;20420;-85
2023/02/17 01:13:57;;;;;;;13.27;9.00;;;9.80;99.90;;;;;;4958978;28;20038;-85
2023/02/17 01:16:26;;;;;;;15.85;6.60;;;9.90;99.90;;;;;;4970801;28;20040;-84
2023/02/17 01:18:52;;;;;;;15.25;9.32;;;9.90;99.90;;;;;;4978393;28;20049;-85
2023/02/17 01:21:18;;;;;;;16.73;9.70;;;10.00;99.90;;;;;;5002151;28;20038;-85
2023/02/17 01:23:44;;;;;;;11.05;7.65;;;9.90;99.90;;;;;;4981412;28;20030;-84
2023/02/17 01:26:17;;;;;;;17.52;8.55;;;10.00;99.90;;;;;;4990916;28;20046;-85
2023/02/17 01:28:43;;;;;;;16.25;10.50;;;9.90;99.90;;;;;;4999200;28;20121;-85
2023/02/17 01:31:09;;;;;;;8.50;5.93;;;9.90;99.90;;;;;;4987106;28;20108;-85
2023/02/17 01:33:35;;;;;;;18.88;10.65;;;10.10;99.90;;;;;;4963518;28;20040;-85
2023/02/17 01:36:02;;;;;;;17.08;6.20;;;9.90;99.90;;;;;;4970631;28;20405;-85
2023/02/17 01:38:28;;;;;;;14.60;9.88;;;9.80;99.90;;;;;;4972824;28;20121;-86
2023/02/17 01:40:54;;;;;;;17.27;9.02;;;9.90;99.90;;;;;;4977854;28;20439;-85
2023/02/17 01:43:20;;;;;;;13.10;6.43;;;9.80;99.90;;;;;;4989645;28;20717;-85
2023/02/17 01:45:49;;;;;;;14.63;7.65;;;9.80;99.90;;;;;;4980936;28;20030;-85
2023/02/17 01:48:17;;;;;;;14.98;7.80;;;9.80;99.90;;;;;;4997133;28;20128;-84
2023/02/17 01:50:53;;;;;;;22.23;11.88;;;10.10;99.90;;;;;;5000884;28;20064;-83
2023/02/17 01:53:21;;;;;;;17.90;10.80;;;9.90;99.90;;;;;;4996149;28;20041;-85
2023/02/17 01:55:47;;;;;;;16.45;9.07;;;9.90;99.90;;;;;;4984600;28;20493;-85
2023/02/17 01:58:14;;;;;;;15.82;10.10;;;9.90;99.90;;;;;;4984983;28;20041;-85
2023/02/17 02:00:40;;;;;;;19.35;11.95;;;9.90;99.90;;;;;;4974256;28;20117;-85
2023/02/17 02:03:08;;;;;;;9.95;7.18;;;9.90;99.90;;;;;;4984418;28;20117;-84
2023/02/17 02:05:35;;;;;;;15.55;9.68;;;9.90;99.90;;;;;;4992810;28;20410;-83
2023/02/17 02:08:01;;;;;;;19.15;10.07;;;10.00;99.90;;;;;;5003115;28;20034;-85
2023/02/17 02:10:26;;;;;;;13.93;7.50;;;9.80;99.90;;;;;;4985473;28;20034;-85
2023/02/17 02:12:52;;;;;;;8.30;3.80;;;9.90;99.90;;;;;;4980325;28;20087;-84
2023/02/17 02:15:20;;;;;;;12.65;9.18;;;9.90;99.90;;;;;;4993299;28;20457;-84
2023/02/17 02:17:54;;;;;;;13.68;9.63;;;9.80;99.90;;;;;;4989393;28;20060;-85
2023/02/17 02:20:54;;;;;;;22.52;10.13;;;9.90;99.90;;;;;;4991753;28;20041;-86
2023/02/17 02:23:40;;;;;;;12.60;7.22;;;9.80;99.90;;;;;;5012232;28;20038;-85
2023/02/17 02:26:24;;;;;;;16.53;8.93;;;9.80;99.90;;;;;;4990494;28;20062;-84
2023/02/17 02:29:10;;;;;;;18.73;10.40;;;9.80;99.90;;;;;;5000794;28;20312;-85
2023/02/17 02:32:00;;;;;;;14.57;10.17;;;9.80;99.90;;;;;;4996831;28;21065;-85
2023/02/17 02:34:30;;;;;;;14.68;7.13;;;9.80;99.90;;;;;;4995322;28;20038;-85
2023/02/17 02:37:23;;;;;;;9.15;5.63;;;9.80;99.90;;;;;;4991040;28;20080;-85
2023/02/17 02:39:50;;;;;;;13.52;5.75;;;9.90;99.90;;;;;;4998584;28;20041;-84
2023/02/17 02:42:17;;;;;;;12.45;5.50;;;10.10;99.90;;;;;;4985160;28;20536;-83
2023/02/17 02:44:43;;;;;;;15.95;7.30;;;9.80;99.90;;;;;;4986065;28;20084;-84
2023/02/17 02:47:30;;;;;;;11.45;7.07;;;9.80;99.90;;;;;;4990127;28;20058;-86
2023/02/17 02:49:55;;;;;;;16.08;9.75;;;9.90;99.90;;;;;;4993807;28;20022;-85
2023/02/17 02:52:43;;;;;;;15.15;9.27;;;9.80;99.90;;;;;;4981423;28;20060;-84
2023/02/17 02:55:15;;;;;;;13.80;7.78;;;9.80;99.90;;;;;;4987464;28;20108;-84
2023/02/17 02:57:53;;;;;;;10.70;7.10;;;9.80;99.90;;;;;;5001762;28;20030;-84
2023/02/17 03:00:32;;;;;;;10.82;7.28;;;9.90;99.90;;;;;;4997592;28;20038;-84
2023/02/17 03:03:14;;;;;;;11.73;6.53;;;9.90;99.90;;;;;;4995060;28;20178;-84
2023/02/17 03:06:08;;;;;;;12.45;7.47;;;9.90;99.90;;;;;;5004074;28;20028;-84
2023/02/17 03:08:37;;;;;;;10.05;5.80;;;9.90;99.90;;;;;;5001494;28;20367;-83
2023/02/17 03:11:03;;;;;;;15.75;7.47;;;9.90;99.90;;;;;;4971654;28;20026;-84
2023/02/17 03:13:29;;;;;;;8.32;5.53;;;9.90;99.90;;;;;;5001363;28;20045;-84
2023/02/17 03:15:54;;;;;;;10.65;6.50;;;9.90;99.90;;;;;;4999358;28;20031;-84
2023/02/17 03:18:20;;;;;;;6.88;4.82;;;10.00;99.90;;;;;;4998678;28;20494;-84
2023/02/17 03:20:52;;;;;;;9.63;6.15;;;9.90;99.90;;;;;;4981700;28;20057;-82
2023/02/17 03:23:17;;;;;;;12.00;8.40;;;9.90;99.90;;;;;;4971830;28;20037;-84
2023/02/17 03:25:43;;;;;;;11.02;7.03;;;9.90;99.90;;;;;;4995248;28;20113;-84
2023/02/17 03:28:09;;;;;;;12.13;8.57;;;10.00;99.90;;;;;;4996478;28;20070;-84
2023/02/17 03:30:35;;;;;;;8.93;5.30;;;10.00;99.90;;;;;;4988085;28;20058;-84
2023/02/17 03:33:01;;;;;;;5.30;2.72;;;10.00;99.90;;;;;;5000662;28;20033;-84
2023/02/17 03:35:27;;;;;;;11.02;8.73;;;10.00;99.90;;;;;;4986975;28;20049;-84
2023/02/17 03:37:52;;;;;;;11.68;8.90;;;10.00;99.90;;;;;;4996600;28;20038;-82
2023/02/17 03:40:18;;;;;;;9.68;6.10;;;10.10;99.90;;;;;;5001196;28;20084;-83
2023/02/17 03:42:44;;;;;;;13.18;8.82;;;10.10;99.90;;;;;;4978957;28;20036;-84
2023/02/17 03:45:09;;;;;;;11.30;7.40;;;10.00;99.90;;;;;;4984523;28;20433;-84
2023/02/17 03:47:35;;;;;;;8.15;6.32;;;10.00;99.90;;;;;;4995924;28;20036;-85
2023/02/17 03:50:04;;;;;;;7.28;4.47;;;10.10;99.90;;;;;;5000874;28;20037;-85
2023/02/17 03:52:30;;;;;;;7.57;5.00;;;10.10;99.90;;;;;;4975863;28;20037;-85
2023/02/17 03:54:56;;;;;;;9.68;6.55;;;10.10;99.90;;;;;;4984896;28;20045;-86
2023/02/17 03:57:21;;;;;;;11.45;7.13;;;10.10;99.90;;;;;;5011937;28;20030;-82
2023/02/17 03:59:47;;;;;;;7.90;6.03;;;10.10;99.90;;;;;;5005300;28;20481;-82
2023/02/17 04:02:12;;;;;;;14.48;8.57;;;10.20;99.90;;;;;;5010701;28;20041;-83
2023/02/17 04:04:38;;;;;;;10.00;6.95;;;10.10;99.90;;;;;;5003077;28;20030;-82
2023/02/17 04:07:04;;;;;;;10.63;4.85;;;9.90;99.90;;;;;;4986962;28;20029;-82
2023/02/17 04:09:29;;;;;;;10.98;7.70;;;10.10;99.90;;;;;;4972343;28;20695;-82
2023/02/17 04:11:55;;;;;;;10.25;6.13;;;10.20;99.90;;;;;;4985599;28;20049;-83
2023/02/17 04:14:20;;;;;;;9.50;6.18;;;10.30;99.90;;;;;;4996807;28;20038;-83
2023/02/17 04:16:46;;;;;;;9.73;4.82;;;10.20;99.90;;;;;;4975362;28;20089;-83
2023/02/17 04:19:12;;;;;;;10.70;7.45;;;10.20;99.90;;;;;;4979380;28;20800;-83
2023/02/17 04:21:37;;;;;;;9.20;6.15;;;10.20;99.90;;;;;;4980231;28;20053;-82
2023/02/17 04:24:03;;;;;;;6.43;4.22;;;10.20;99.90;;;;;;4995544;28;20548;-82
2023/02/17 04:26:29;;;;;;;12.18;8.88;;;10.20;99.90;;;;;;5000920;28;20034;-82
2023/02/17 04:28:55;;;;;;;8.25;5.82;;;10.20;99.90;;;;;;4994923;28;20537;-81
2023/02/17 04:31:20;;;;;;;7.57;5.40;;;10.20;99.90;;;;;;4994072;28;20033;-82
2023/02/17 04:33:46;;;;;;;10.73;7.25;;;10.20;99.90;;;;;;4978040;28;20033;-82
2023/02/17 04:36:11;;;;;;;13.45;6.75;;;10.20;99.90;;;;;;4977511;28;20034;-81
2023/02/17 04:38:37;;;;;;;8.95;6.50;;;10.30;99.90;;;;;;4991971;28;20030;-82
2023/02/17 04:41:03;;;;;;;10.23;7.32;;;10.30;99.90;;;;;;4992048;28;20065;-81
2023/02/17 04:43:29;;;;;;;8.20;5.43;;;10.30;99.90;;;;;;4996519;28;20026;-81
2023/02/17 04:45:54;;;;;;;13.20;8.15;;;10.40;99.90;;;;;;4983067;28;20042;-82
2023/02/17 04:48:20;;;;;;;12.23;6.60;;;10.40;99.90;;;;;;4997815;28;20456;-82
2023/02/17 04:50:46;;;;;;;9.48;6.85;;;10.40;99.90;;;;;;4991197;28;20037;-82
2023/02/17 04:53:12;;;;;;;11.90;8.48;;;10.40;99.90;;;;;;4982009;28;20091;-82
2023/02/17 04:55:38;;;;;;;8.88;5.43;;;10.50;99.90;;;;;;4968383;28;20149;-83
2023/02/17 04:58:04;;;;;;;9.95;7.32;;;10.50;99.90;;;;;;4968695;28;20109;-82
2023/02/17 05:00:30;;;;;;;7.60;4.32;;;10.40;99.90;;;;;;4976025;28;20325;-82
2023/02/17 05:03:02;;;;;;;8.77;5.60;;;10.30;99.90;;;;;;4977598;28;20030;-82
2023/02/17 05:05:27;;;;;;;11.23;7.97;;;10.40;99.90;;;;;;4979497;28;20489;-83
2023/02/17 05:07:53;;;;;;;9.80;5.47;;;10.50;99.90;;;;;;4997625;28;20025;-83
2023/02/17 05:10:19;;;;;;;8.35;5.20;;;10.30;99.90;;;;;;4980594;28;20037;-83
2023/02/17 05:12:44;;;;;;;7.00;4.85;;;10.40;99.90;;;;;;4981380;28;20045;-83
2023/02/17 05:15:10;;;;;;;8.65;5.03;;;10.40;99.90;;;;;;4980069;28;20053;-83
2023/02/17 05:17:35;;;;;;;6.88;4.95;;;10.30;99.90;;;;;;4981690;28;20436;-83
2023/02/17 05:20:01;;;;;;;8.80;4.50;;;10.40;99.90;;;;;;4990669;28;20782;-82
2023/02/17 05:22:27;;;;;;;10.30;7.10;;;10.40;99.90;;;;;;4995288;28;20037;-82
2023/02/17 05:24:52;;;;;;;8.43;6.57;;;10.40;99.90;;;;;;4996613;28;20053;-81
2023/02/17 05:27:18;;;;;;;7.60;5.72;;;10.40;99.90;;;;;;4999748;28;20026;-83
2023/02/17 05:29:44;;;;;;;4.72;3.55;;;10.40;99.90;;;;;;4982091;28;20030;-83
2023/02/17 05:32:10;;;;;;;9.63;7.22;;;10.50;99.90;;;;;;4988703;28;20034;-84
2023/02/17 05:34:36;;;;;;;7.82;5.70;;;10.40;99.90;;;;;;4998410;28;20034;-85
2023/02/17 05:37:02;;;;;;;6.18;4.35;;;10.40;99.90;;;;;;4973713;28;20041;-84
2023/02/17 05:39:27;;;;;;;8.27;5.63;;;10.40;99.90;;;;;;4992588;28;20045;-82
2023/02/17 05:41:53;;;;;;;11.48;8.70;;;10.50;99.90;;;;;;4998346;28;20034;-84
2023/02/17 05:44:19;;;;;;;10.00;6.28;;;10.50;99.90;;;;;;4997428;28;20030;-84
2023/02/17 05:46:44;;;;;;;7.80;5.05;;;10.50;99.90;;;;;;4965690;28;20022;-82
2023/02/17 05:49:10;;;;;;;10.27;7.68;;;10.50;99.90;;;;;;4990178;28;20645;-82
2023/02/17 05:51:36;;;;;;;8.88;5.03;;;10.50;99.90;;;;;;4976384;28;20453;-83
2023/02/17 05:54:02;;;;;;;10.80;8.15;;;10.50;99.90;;;;;;4981595;28;20041;-84
2023/02/17 05:56:28;;;;;;;9.75;7.05;;;10.50;99.90;;;;;;4980527;28;20038;-82
2023/02/17 05:58:54;;;;;;;9.60;5.85;;;10.40;99.90;;;;;;4980856;28;20089;-86
2023/02/17 06:01:19;;;;;;;12.43;5.95;;;10.40;99.90;;;;;;4985473;28;20120;-86
2023/02/17 06:03:45;;;;;;;13.15;7.25;;;10.50;99.90;;;;;;4999214;28;20496;-83
2023/02/17 06:06:11;;;;;;;7.40;4.75;;;10.50;99.90;;;;;;4984003;28;20073;-85
2023/02/17 06:08:38;;;;;;;9.02;5.95;;;10.50;99.90;;;;;;4989308;28;20038;-86
2023/02/17 06:11:04;;;;;;;12.20;6.15;;;10.50;99.90;;;;;;4985220;28;20041;-86
2023/02/17 06:13:29;;;;;;;9.48;5.15;;;10.60;99.90;;;;;;4995616;28;20113;-86
2023/02/17 06:15:55;;;;;;;8.95;5.95;;;10.60;99.90;;;;;;4990992;28;20034;-87
2023/02/17 06:18:20;;;;;;;14.95;6.80;;;10.60;99.90;;;;;;4998487;28;20035;-87
2023/02/17 06:20:46;;;;;;;9.27;6.55;;;10.60;99.90;;;;;;4999595;28;20134;-87
2023/02/17 06:23:13;;;;;;;9.75;6.53;;;10.60;99.90;;;;;;4986925;28;20038;-87
2023/02/17 06:25:41;;;;;;;12.27;7.35;;;10.60;99.90;;;;;;4997803;28;20040;-83
2023/02/17 06:28:08;;;;;;;8.73;6.00;;;10.60;99.90;;;;;;4989041;28;20049;-82
2023/02/17 06:30:34;;;;;;;8.63;5.90;;;10.60;99.90;;;;;;4980423;28;20096;-83
2023/02/17 06:32:59;;;;;;;9.93;6.68;;;10.60;99.90;;;;;;4956134;28;20042;-83
2023/02/17 06:35:25;;;;;;;5.43;3.78;;;10.60;99.90;;;;;;5003993;28;20052;-82
2023/02/17 06:37:51;;;;;;;8.15;4.22;;;10.60;99.90;;;;;;4998496;28;20495;-82
2023/02/17 06:40:17;;;;;;;10.40;4.85;;;10.60;99.90;;;;;;4988319;28;20483;-83
2023/02/17 06:42:44;;;;;;;9.73;7.05;;;10.60;99.90;;;;;;4997653;28;20080;-83
2023/02/17 06:45:16;;;;;;;10.95;7.85;;;10.50;99.90;;;;;;4966566;28;20026;-84
2023/02/17 06:47:41;;;;;;;6.28;4.20;;;10.60;99.90;;;;;;4988336;28;20018;-84
2023/02/17 06:50:08;;;;;;;10.90;5.72;;;10.60;99.90;;;;;;4980161;28;20490;-84
2023/02/17 06:52:34;;;;;;;8.07;5.60;;;10.70;99.90;;;;;;4977821;28;20076;-84
2023/02/17 06:55:09;;;;;;;10.93;8.70;;;10.70;99.90;;;;;;5005015;28;20037;-84
2023/02/17 06:57:34;;;;;;;7.80;5.10;;;10.60;99.90;;;;;;4996953;28;20061;-84
2023/02/17 07:00:00;;;;;;;8.57;5.45;;;10.60;99.90;;;;;;5011160;28;20064;-85
2023/02/17 07:02:26;;;;;;;10.75;7.70;;;10.60;99.90;;;;;;5000893;28;20037;-84
2023/02/17 07:04:51;;;;;;;8.00;4.65;;;10.60;99.90;;;;;;4998665;28;20030;-85
2023/02/17 07:07:17;;;;;;;6.68;4.93;;;10.60;99.90;;;;;;5001970;28;20489;-84
2023/02/17 07:09:43;;;;;;;12.52;5.90;;;10.60;99.90;;;;;;4992350;28;20374;-83
2023/02/17 07:12:09;;;;;;;11.55;6.32;;;10.60;99.90;;;;;;5013250;28;20513;-84
2023/02/17 07:14:35;;;;;;;13.40;9.25;;;10.50;99.90;;;;;;5019602;28;20025;-83
2023/02/17 07:17:01;;;;;;;10.52;7.30;;;10.50;99.90;;;;;;5011707;28;20493;-84
2023/02/17 07:19:29;;;;;;;10.18;5.20;;;10.50;99.90;;;;;;5000674;28;20784;-83
2023/02/17 07:21:55;;;;;;;14.25;9.50;;;10.40;99.90;;;;;;5014156;28;20076;-83
2023/02/17 07:24:22;;;;;;;10.23;8.48;;;10.60;99.90;;;;;;4994232;28;20040;-82
2023/02/17 07:26:48;;;;;;;7.55;5.00;;;10.40;99.90;;;;;;5010417;28;20062;-83
2023/02/17 07:29:13;;;;;;;11.52;5.95;;;10.40;99.90;;;;;;4996637;28;20030;-82
2023/02/17 07:31:39;;;;;;;10.02;7.07;;;10.50;99.90;;;;;;4997837;28;20056;-82
2023/02/17 07:34:04;;;;;;;8.23;6.20;;;10.40;99.90;;;;;;4666569;28;10000236;-81
2023/02/17 07:36:30;;;;;;;10.70;7.45;;;10.50;99.90;;;;;;4997310;28;20030;-83
2023/02/17 07:38:56;;;;;;;11.10;8.00;;;10.50;99.90;;;;;;4979510;28;20023;-82
2023/02/17 07:41:31;;;;;;;11.52;8.65;;;10.40;99.90;;;;;;4995550;28;20085;-82
2023/02/17 07:43:57;;;;;;;9.23;5.90;;;10.50;99.90;;;;;;5014599;28;20059;-81
2023/02/17 07:46:23;;;;;;;9.27;6.47;;;10.50;99.90;;;;;;5012891;28;20109;-82
2023/02/17 07:48:50;;;;;;;10.20;7.13;;;10.40;99.90;;;;;;5010997;28;20041;-82
2023/02/17 07:51:20;;;;;;;13.60;9.00;;;10.40;99.90;;;;;;4996538;28;20041;-83
2023/02/17 07:53:49;;;;;;;12.35;7.97;;;10.50;99.90;;;;;;4996441;28;20179;-86
2023/02/17 07:56:15;;;;;;;8.23;7.38;;;10.50;99.90;;;;;;4982504;28;20091;-86
2023/02/17 07:58:42;;;;;;;9.02;5.57;;;10.50;99.90;;;;;;5002281;28;20045;-86
2023/02/17 08:01:12;;;;;;;11.93;7.57;;;10.40;99.90;;;;;;4998349;28;20041;-85
2023/02/17 08:03:38;;;;;;;6.57;4.50;;;10.50;99.90;;;;;;4971191;28;20475;-85
2023/02/17 08:06:07;;;;;;;9.20;7.05;;;10.50;99.90;;;;;;4989472;28;20124;-85
2023/02/17 08:14:12;;;;;;;17.55;5.65;;;10.50;99.90;;;;;;5006645;28;20148;-87
2023/02/17 08:16:38;;;;;;;10.50;6.88;;;10.60;99.90;;;;;;5004068;28;20026;-87
2023/02/17 08:19:04;;;;;;;10.38;5.50;;;10.60;99.90;;;;;;5002473;28;20673;-87
2023/02/17 08:21:29;;;;;;;10.35;5.47;;;10.60;99.90;;;;;;5017216;28;20037;-86
2023/02/17 08:23:55;;;;;;;12.45;5.05;;;10.60;99.90;;;;;;5006134;28;20040;-86
2023/02/17 08:26:21;;;;;;;7.82;4.63;;;10.60;99.90;;;;;;5021817;28;20054;-88
2023/02/17 08:28:49;;;;;;;8.23;5.60;;;10.70;99.90;;;;;;5001267;28;20041;-87
2023/02/17 08:31:20;;;;;;;10.93;8.18;;;10.70;99.90;;;;;;5013487;28;20030;-85
2023/02/17 08:33:46;;;;;;;7.50;5.72;;;10.70;99.90;;;;;;4994429;28;20032;-85
2023/02/17 08:36:12;;;;;;;8.02;5.57;;;10.80;99.90;;;;;;4997265;28;20390;-81
2023/02/17 08:38:38;;;;;;;8.82;5.65;;;10.60;99.90;;;;;;4991342;28;20034;-83
2023/02/17 08:41:21;;;;;;;11.50;7.68;;;10.90;99.90;;;;;;4990104;28;20037;-83
2023/02/17 08:43:47;;;;;;;5.25;3.70;;;10.90;99.90;;;;;;4990290;28;20517;-80
2023/02/17 08:46:13;;;;;;;10.43;6.55;;;10.90;99.90;;;;;;5007887;28;20034;-84
2023/02/17 08:48:39;;;;;;;7.43;5.47;;;10.90;99.90;;;;;;5009993;28;20026;-83
2023/02/17 08:51:05;;;;;;;6.00;4.78;;;11.00;99.90;;;;;;5004593;28;20037;-83
2023/02/17 08:53:30;;;;;;;10.65;4.55;;;11.00;99.90;;;;;;5010765;28;20412;-83
2023/02/17 08:55:56;;;;;;;12.25;6.72;;;11.10;99.90;;;;;;4991496;28;20435;-82
2023/02/17 08:58:22;;;;;;;10.27;5.38;;;11.10;99.90;;;;;;4996915;28;20061;-83
2023/02/17 09:00:47;;;;;;;9.85;6.72;;;11.10;99.90;;;;;;4997909;28;20053;-83
2023/02/17 09:03:15;;;;;;;9.13;5.88;;;11.40;99.90;;;;;;4989868;28;20115;-84
2023/02/17 09:05:43;;;;;;;10.25;5.72;;;11.30;99.90;;;;;;4994519;28;20089;-84
2023/02/17 09:08:09;;;;;;;9.57;6.95;;;11.30;99.90;;;;;;4989441;28;20092;-83
2023/02/17 09:10:36;;;;;;;5.88;4.35;;;11.30;99.90;;;;;;4993313;28;20042;-84
2023/02/17 09:13:01;;;;;;;7.10;3.97;;;11.60;99.90;;;;;;4989489;28;20416;-88
2023/02/17 09:15:31;;;;;;;6.70;4.88;;;11.60;99.90;;;;;;4983911;28;20034;-85
2023/02/17 09:17:57;;;;;;;12.02;7.00;;;11.50;99.90;;;;;;4987312;28;20034;-87
2023/02/17 09:20:26;;;;;;;6.75;4.43;;;11.50;99.90;;;;;;4971362;28;20048;-87
2023/02/17 09:22:56;;;;;;;7.32;4.95;;;11.60;99.90;;;;;;4975079;28;20410;-87
2023/02/17 09:25:21;;;;;;;7.35;5.18;;;11.60;99.90;;;;;;4973630;28;20030;-85
2023/02/17 09:27:47;;;;;;;10.20;6.28;;;11.70;99.90;;;;;;5003573;28;20257;-84
2023/02/17 09:30:14;;;;;;;6.03;3.70;;;11.70;99.90;;;;;;5003360;28;20409;-85
2023/02/17 09:32:41;;;;;;;7.43;5.45;;;11.80;99.90;;;;;;4993634;28;20409;-83
2023/02/17 09:35:07;;;;;;;5.30;3.95;;;11.80;99.90;;;;;;4969639;28;20420;-83
2023/02/17 09:37:32;;;;;;;7.25;4.95;;;11.90;99.90;;;;;;5012034;28;20469;-83
2023/02/17 09:39:58;;;;;;;12.40;4.45;;;11.90;99.90;;;;;;4993004;28;20037;-84
2023/02/17 09:42:26;;;;;;;7.55;4.22;;;12.00;99.90;;;;;;4984574;28;20487;-83
2023/02/17 09:45:20;;;;;;;11.85;6.45;;;12.00;99.90;;;;;;5009853;28;20038;-83
2023/02/17 09:48:06;;;;;;;7.30;4.20;;;12.10;99.90;;;;;;5003939;28;20026;-83
2023/02/17 09:50:52;;;;;;;5.03;2.67;;;12.10;99.90;;;;;;4990592;28;20042;-83
2023/02/17 09:53:33;;;;;;;7.18;5.10;;;12.20;99.90;;;;;;5005080;28;20197;-83
2023/02/17 09:56:01;;;;;;;7.03;4.18;;;12.30;99.90;;;;;;5021308;28;20515;-84
2023/02/17 09:58:33;;;;;;;9.45;6.63;;;12.40;99.90;;;;;;5009860;28;20049;-83
2023/02/17 10:01:04;;;;;;;8.88;4.68;;;12.40;99.90;;;;;;5004124;28;20489;-85
2023/02/17 10:03:42;;;;;;;9.90;7.57;;;12.40;99.90;;;;;;5013249;28;20038;-84
2023/02/17 10:06:21;;;;;;;7.15;5.07;;;12.50;99.90;;;;;;4987808;28;20034;-84
2023/02/17 10:09:11;;;;;;;8.10;4.88;;;12.40;99.90;;;;;;4996107;28;20038;-84
2023/02/17 10:11:37;;;;;;;7.88;5.65;;;12.60;99.90;;;;;;5012705;28;20371;-84
2023/02/17 10:14:20;;;;;;;6.93;4.68;;;12.60;99.90;;;;;;5010667;28;20045;-84
2023/02/17 10:17:16;;;;;;;7.10;4.35;;;12.70;99.90;;;;;;4997834;28;20080;-86
2023/02/17 10:19:53;;;;;;;6.53;4.13;;;12.80;99.90;;;;;;4995336;28;20065;-83
2023/02/17 10:22:21;;;;;;;6.93;4.95;;;12.90;99.90;;;;;;5008760;28;20069;-86
2023/02/17 10:24:50;;;;;;;6.53;4.05;;;12.90;99.90;;;;;;4998769;28;20037;-84
2023/02/17 10:27:36;;;;;;;7.25;4.80;;;13.00;99.90;;;;;;5000638;28;20025;-85
2023/02/17 10:30:14;;;;;;;8.90;5.88;;;12.90;99.90;;;;;;5011178;28;20484;-85
2023/02/17 10:33:05;;;;;;;6.88;3.72;;;12.90;99.90;;;;;;5016065;28;20511;-85
2023/02/17 10:35:40;;;;;;;7.35;3.45;;;13.00;99.90;;;;;;5012602;28;20513;-85
2023/02/17 10:38:18;;;;;;;5.60;3.60;;;13.00;99.90;;;;;;5014029;28;20041;-84
2023/02/17 10:40:48;;;;;;;5.00;3.40;;;13.10;99.90;;;;;;5007460;28;20422;-83
2023/02/17 10:43:21;;;;;;;7.43;3.92;;;13.10;99.90;;;;;;4991476;28;20021;-85
2023/02/17 10:45:49;;;;;;;6.47;4.72;;;13.40;99.90;;;;;;4994153;28;20505;-86
2023/02/17 10:48:28;;;;;;;7.68;4.50;;;13.10;99.90;;;;;;5010820;28;20252;-84
2023/02/17 10:51:03;;;;;;;6.25;3.58;;;13.00;99.90;;;;;;4995463;28;20053;-86
2023/02/17 10:53:35;;;;;;;6.13;3.65;;;13.00;99.90;;;;;;5009798;28;20125;-84
2023/02/17 10:56:35;;;;;;;4.85;2.72;;;13.00;99.90;;;;;;5011595;28;20485;-85
2023/02/17 10:59:07;;;;;;;9.73;3.90;;;13.10;99.90;;;;;;4947757;28;20043;-86
2023/02/17 11:01:58;;;;;;;3.83;2.78;;;13.20;99.90;;;;;;4972701;28;20393;-84
2023/02/17 11:04:23;;;;;;;6.30;4.03;;;13.20;99.90;;;;;;5002224;28;20030;-85
2023/02/17 11:06:53;;;;;;;4.70;3.47;;;13.30;99.90;;;;;;4985784;28;20033;-85
2023/02/17 11:09:51;;;;;;;6.55;3.70;;;13.40;99.90;;;;;;5001400;28;20049;-85
2023/02/17 11:13:09;;;;;;;5.85;3.20;;;13.40;99.90;;;;;;4995364;28;20054;-85
2023/02/17 11:15:47;;;;;;;7.22;2.88;;;13.50;99.90;;;;;;5002064;28;20061;-85
2023/02/17 11:18:29;;;;;;;5.63;3.85;;;13.70;99.90;;;;;;4977712;28;20030;-85
2023/02/17 11:21:10;;;;;;;4.45;3.22;;;13.50;99.90;;;;;;4977459;28;20088;-85
2023/02/17 11:23:39;;;;;;;7.47;4.35;;;13.40;99.90;;;;;;4964784;28;20025;-85
2023/02/17 11:26:15;;;;;;;4.65;3.35;;;13.40;99.90;;;;;;4960442;28;20030;-85
2023/02/17 11:28:41;;;;;;;2.67;2.03;;;13.40;99.90;;;;;;4954453;28;20029;-85
2023/02/17 11:31:26;;;;;;;5.68;2.42;;;13.50;99.90;;;;;;4933158;28;20026;-84
2023/02/17 11:33:58;;;;;;;5.50;3.67;;;13.60;99.90;;;;;;4945653;28;20133;-84
2023/02/17 11:36:36;;;;;;;4.35;2.63;;;14.00;99.90;;;;;;4995681;28;20061;-84
2023/02/17 11:39:41;;;;;;;2.85;1.83;;;13.50;99.90;;;;;;4941478;28;20064;-85
2023/02/17 11:42:25;;;;;;;4.07;2.95;;;13.60;99.90;;;;;;4976151;28;20025;-84
2023/02/17 11:44:59;;;;;;;3.13;2.58;;;14.10;99.90;;;;;;4990613;28;20456;-85
2023/02/17 11:48:15;;;;;;;5.30;3.65;;;14.30;99.90;;;;;;4944330;28;20022;-85
2023/02/17 11:51:10;;;;;;;3.47;2.45;;;15.20;99.90;;;;;;4957473;28;20075;-87
2023/02/17 11:54:08;;;;;;;4.50;3.20;;;14.30;99.90;;;;;;4971118;28;20210;-90
2023/02/17 11:56:49;;;;;;;6.47;3.67;;;14.50;99.90;;;;;;4990950;28;20523;-86
2023/02/17 12:00:01;;;;;;;;;;;;;;;;;;;;;
2023/02/17 12:06:01;;;;;;;6.28;2.53;;;14.60;99.90;;;;;;4993628;28;20044;-88
2023/02/17 12:09:09;;;;;;;4.28;2.72;;;14.60;99.90;;;;;;4973352;28;20041;-86
2023/02/17 12:15:08;;;;;;;3.08;2.22;;;14.50;99.90;;;;;;4975789;28;20035;-88
2023/02/17 12:18:12;;;;;;;4.85;3.17;;;14.50;99.90;;;;;;4971590;28;20037;-89
2023/02/17 12:21:01;;;;;;;6.40;2.17;;;14.50;99.90;;;;;;4995613;28;20030;-88
2023/02/17 12:24:04;;;;;;;4.50;2.25;;;14.40;99.90;;;;;;4968104;28;20639;-86
2023/02/17 12:26:46;;;;;;;3.88;2.42;;;14.50;99.90;;;;;;4631228;28;9999850;-90
2023/02/17 12:29:23;;;;;;;3.33;1.83;;;14.60;99.90;;;;;;4947944;28;20982;-88
2023/02/17 12:32:29;;;;;;;3.85;2.08;;;14.60;99.90;;;;;;4932320;28;20258;-89
2023/02/17 12:35:02;;;;;;;4.80;3.00;;;14.60;99.90;;;;;;5002628;28;20045;-89
2023/02/17 12:41:39;;;;;;;3.80;2.58;;;14.50;99.90;;;;;;4999569;28;20026;-85
2023/02/17 12:44:34;;;;;;;4.82;2.20;;;14.90;99.90;;;;;;4952065;28;20047;-85
2023/02/17 12:47:41;;;;;;;3.95;2.78;;;14.70;99.90;;;;;;4949704;28;20023;-86
2023/02/17 12:50:17;;;;;;;4.90;2.13;;;14.60;99.90;;;;;;4931232;28;20314;-89
2023/02/17 12:52:43;;;;;;;4.28;2.00;;;14.50;99.90;;;;;;4938777;28;20579;-87
2023/02/17 12:55:09;;;;;;;6.07;2.72;;;14.50;99.90;;;;;;4955083;28;20030;-86
2023/02/17 12:57:40;;;;;;;3.55;2.55;;;14.50;99.90;;;;;;4985571;28;20069;-85
2023/02/17 13:00:22;;;;;;;3.75;2.85;;;15.30;99.90;;;;;;4997805;28;20030;-86
2023/02/17 13:02:51;;;;;;;2.00;1.52;;;14.40;99.90;;;;;;4994002;28;20030;-85
2023/02/17 13:05:23;;;;;;;1.70;1.30;;;14.40;99.90;;;;;;5008658;28;20474;-85
2023/02/17 13:08:21;;;;;;;3.70;1.95;;;14.40;99.90;;;;;;4964725;28;20088;-85
2023/02/17 13:11:07;;;;;;;4.07;2.28;;;14.20;99.90;;;;;;4957625;28;20026;-87
2023/02/17 13:13:33;;;;;;;2.65;1.67;;;14.40;99.90;;;;;;5010964;28;20041;-86
2023/02/17 13:16:09;;;;;;;4.53;2.35;;;14.40;99.90;;;;;;4962500;28;20037;-87
2023/02/17 13:18:51;;;;;;;3.00;2.05;;;14.40;99.90;;;;;;4979764;28;20119;-88
2023/02/17 13:21:40;;;;;;;3.72;2.17;;;14.30;99.90;;;;;;4947210;28;20038;-86